Time;durP1;ratioP1;P1;durP2;ratioP2;P2;SDS_P1;SDS_P2;PMS_P1;PMS_P2;Temp;Humidity;BMP_temperature;BMP_pressure;BME280_temperature;BME280_humidity;BME280_pressure;Samples;Min_cycle;Max_cycle;Signal;HPM_P1;HPM_P2
2022/01/13 00:00:30;;;;;;;32.30;15.43;;;;;;;-9.76;100.00;94907.09;2079898;28;20456;-83
2022/01/13 00:01:35;;;;;;;33.30;15.27;;;;;;;-9.74;100.00;94906.88;2077697;28;20444;-82
2022/01/13 00:02:37;;;;;;;28.27;15.02;;;;;;;-9.67;100.00;94910.03;2078403;28;20622;-82
2022/01/13 00:03:38;;;;;;;31.35;15.05;;;;;;;-9.77;100.00;94912.53;2080318;28;20440;-82
2022/01/13 00:04:39;;;;;;;30.80;15.18;;;;;;;-9.80;100.00;94908.59;2080712;28;20440;-82
2022/01/13 00:05:40;;;;;;;30.45;15.52;;;;;;;-9.84;100.00;94909.34;2089823;28;20948;-84
2022/01/13 00:06:42;;;;;;;29.88;15.57;;;;;;;-9.69;100.00;94905.09;2089576;28;20990;-82
2022/01/13 00:07:43;;;;;;;31.77;16.02;;;;;;;-9.69;100.00;94904.31;2081591;28;20829;-82
2022/01/13 00:08:44;;;;;;;30.35;14.65;;;;;;;-9.73;100.00;94909.19;2087027;28;20450;-83
2022/01/13 00:09:47;;;;;;;33.47;15.27;;;;;;;-9.87;100.00;94913.22;2098528;28;20107;-82
2022/01/13 00:10:48;;;;;;;27.92;15.07;;;;;;;-9.90;100.00;94914.47;2099670;28;20105;-82
2022/01/13 00:11:51;;;;;;;24.35;13.30;;;;;;;-9.86;100.00;94914.75;2097801;28;21088;-82
2022/01/13 00:13:02;;;;;;;31.17;15.82;;;;;;;-9.73;100.00;94909.19;2096327;28;20586;-82
2022/01/13 00:15:23;;;;;;;26.13;13.23;;;;;;;-9.78;100.00;94903.97;2089826;28;21202;-83
2022/01/13 00:16:37;;;;;;;24.20;12.98;;;;;;;-9.79;100.00;94915.34;2093380;28;20473;-82
2022/01/13 00:19:04;;;;;;;30.83;15.15;;;;;;;-9.89;100.00;94915.25;2091741;28;20462;-83
2022/01/13 00:21:39;;;;;;;28.15;14.68;;;;;;;-9.89;100.00;94916.00;2095738;28;20988;-81
2022/01/13 00:23:50;;;;;;;33.33;14.48;;;;;;;-9.95;100.00;94921.38;2105188;28;21345;-82
2022/01/13 00:24:56;;;;;;;30.17;15.68;;;;;;;-9.96;100.00;94925.78;2088713;28;20436;-81
2022/01/13 00:26:00;;;;;;;26.83;14.45;;;;;;;-9.84;100.00;94933.38;2088196;28;20495;-81
2022/01/13 00:27:09;;;;;;;32.78;16.88;;;;;;;-9.92;100.00;94926.06;2089321;28;20447;-83
2022/01/13 00:28:20;;;;;;;32.33;15.07;;;;;;;-9.84;100.00;94927.44;2088686;28;20562;-82
2022/01/13 00:29:27;;;;;;;27.38;14.60;;;;;;;-9.85;100.00;94929.25;2086000;28;20431;-83
2022/01/13 00:30:28;;;;;;;32.78;15.35;;;;;;;-9.89;100.00;94928.94;2089411;28;20485;-83
2022/01/13 00:31:33;;;;;;;32.22;16.02;;;;;;;-9.91;100.00;94927.66;2084144;28;20587;-83
2022/01/13 00:32:34;;;;;;;35.15;16.40;;;;;;;-9.82;100.00;94930.56;2089893;28;20151;-82
2022/01/13 00:33:35;;;;;;;32.90;15.57;;;;;;;-9.83;100.00;94929.00;2087457;28;20448;-82
2022/01/13 00:34:36;;;;;;;31.85;15.75;;;;;;;-9.71;100.00;94934.81;2080150;28;20501;-82
2022/01/13 00:35:38;;;;;;;29.02;15.15;;;;;;;-9.80;100.00;94934.47;2081181;28;20487;-81
2022/01/13 00:36:40;;;;;;;32.70;16.40;;;;;;;-9.82;100.00;94926.19;2085341;28;20033;-81
2022/01/13 00:37:41;;;;;;;34.28;15.90;;;;;;;-9.75;100.00;94931.16;2092196;28;20474;-82
2022/01/13 00:38:45;;;;;;;32.92;16.45;;;;;;;-9.84;100.00;94933.38;2089441;28;20446;-82
2022/01/13 00:39:46;;;;;;;32.95;16.38;;;;;;;-9.86;100.00;94925.09;2095870;28;20786;-82
2022/01/13 00:40:48;;;;;;;31.45;15.43;;;;;;;-9.90;100.00;94929.19;2086424;28;20864;-82
2022/01/13 00:41:48;;;;;;;29.63;15.57;;;;;;;-9.84;100.00;94927.44;2095575;28;21202;-83
2022/01/13 00:42:51;;;;;;;34.63;16.15;;;;;;;-9.86;100.00;94930.28;2088967;28;20475;-82
2022/01/13 00:43:52;;;;;;;38.35;17.48;;;;;;;-9.89;100.00;94925.59;2089715;28;20426;-82
2022/01/13 00:44:53;;;;;;;30.00;14.98;;;;;;;-9.92;100.00;94928.66;2096126;28;20477;-82
2022/01/13 00:45:54;;;;;;;32.65;15.98;;;;;;;-9.90;100.00;94926.63;2094943;28;20032;-82
2022/01/13 00:46:58;;;;;;;35.15;17.40;;;;;;;-9.86;100.00;94927.69;2099115;28;20453;-82
2022/01/13 00:47:59;;;;;;;31.67;16.60;;;;;;;-9.92;100.00;94929.44;2089662;28;20072;-82
2022/01/13 00:49:01;;;;;;;29.35;15.15;;;;;;;-9.95;100.00;94923.97;2089364;28;20606;-83
2022/01/13 00:50:05;;;;;;;33.08;17.15;;;;;;;-9.97;100.00;94933.78;2084154;28;20044;-83
2022/01/13 00:51:06;;;;;;;35.88;17.23;;;;;;;-9.94;100.00;94935.88;2094928;28;20538;-82
2022/01/13 00:52:07;;;;;;;30.23;15.88;;;;;;;-9.94;100.00;94936.66;2089008;28;20467;-83
2022/01/13 00:53:08;;;;;;;33.90;14.88;;;;;;;-9.94;100.00;94939.25;2096415;28;20891;-81
2022/01/13 00:54:09;;;;;;;33.28;15.73;;;;;;;-9.97;100.00;94936.34;2089150;28;20451;-81
2022/01/13 00:55:15;;;;;;;29.60;16.25;;;;;;;-9.96;100.00;94935.34;2090540;28;20024;-82
2022/01/13 00:56:17;;;;;;;32.67;15.00;;;;;;;-10.09;100.00;94940.91;2084613;28;20535;-82
2022/01/13 00:57:18;;;;;;;33.05;16.55;;;;;;;-9.95;100.00;94942.09;2094268;28;20458;-82
2022/01/13 00:58:19;;;;;;;30.48;14.93;;;;;;;-9.97;100.00;94938.94;2080981;28;20444;-82
2022/01/13 00:59:20;;;;;;;34.45;16.05;;;;;;;-10.09;100.00;94943.47;2079897;28;20936;-82
2022/01/13 01:00:21;;;;;;;30.10;15.00;;;;;;;-10.05;100.00;94936.78;2077717;28;20481;-82
2022/01/13 01:01:22;;;;;;;31.02;14.85;;;;;;;-9.95;100.00;94947.25;2083134;28;20021;-83
2022/01/13 01:02:23;;;;;;;32.00;15.25;;;;;;;-10.02;100.00;94950.00;2088259;28;20430;-83
2022/01/13 01:03:25;;;;;;;30.10;15.27;;;;;;;-10.04;100.00;94944.31;2093412;28;20454;-82
2022/01/13 01:04:27;;;;;;;31.13;16.08;;;;;;;-9.91;100.00;94943.94;2081933;28;20021;-82
2022/01/13 01:05:33;;;;;;;31.23;15.05;;;;;;;-9.88;100.00;94942.66;2077443;28;20467;-82
2022/01/13 01:08:42;;;;;;;26.95;13.57;;;;;;;-9.90;100.00;94947.31;2091200;28;20748;-82
2022/01/13 01:09:51;;;;;;;33.13;14.52;;;;;;;-9.89;100.00;94949.63;2088294;28;20443;-82
2022/01/13 01:10:54;;;;;;;28.73;14.98;;;;;;;-9.96;100.00;94956.03;2089138;28;21260;-83
2022/01/13 01:11:57;;;;;;;30.60;14.80;;;;;;;-10.04;100.00;94959.06;2101897;28;20505;-82
2022/01/13 01:13:10;;;;;;;28.17;14.68;;;;;;;-10.08;100.00;94948.41;2093272;28;20440;-82
2022/01/13 01:14:15;;;;;;;29.52;14.38;;;;;;;-10.03;100.00;94966.56;2083794;28;20448;-83
2022/01/13 01:15:18;;;;;;;30.42;15.60;;;;;;;-9.96;100.00;94964.56;2081749;28;20594;-83
2022/01/13 01:16:19;;;;;;;31.75;15.52;;;;;;;-9.82;100.00;94959.03;2079792;28;20769;-82
2022/01/13 01:17:20;;;;;;;27.20;13.75;;;;;;;-9.85;100.00;94968.03;2079619;28;20444;-83
2022/01/13 01:19:28;;;;;;;30.05;14.77;;;;;;;-9.89;100.00;94966.97;2088374;28;20447;-81
2022/01/13 01:20:44;;;;;;;30.88;15.45;;;;;;;-9.99;100.00;94969.44;2095138;28;20451;-82
2022/01/13 01:22:14;;;;;;;32.42;14.90;;;;;;;-9.98;100.00;94968.41;2086288;28;20436;-82
2022/01/13 01:23:15;;;;;;;31.80;14.10;;;;;;;-9.97;100.00;94973.34;2093306;28;21819;-82
2022/01/13 01:25:34;;;;;;;31.20;15.52;;;;;;;-10.09;100.00;94969.34;2089242;28;20443;-83
2022/01/13 01:26:52;;;;;;;25.83;14.20;;;;;;;-9.90;100.00;94978.34;2095063;28;20502;-82
2022/01/13 01:28:00;;;;;;;28.75;13.93;;;;;;;-9.97;100.00;94975.16;2084198;28;20444;-82
2022/01/13 01:30:24;;;;;;;28.38;14.57;;;;;;;-10.03;100.00;94971.72;2090576;28;20447;-82
2022/01/13 01:31:31;;;;;;;27.95;13.85;;;;;;;-10.04;100.00;94970.16;2097725;28;20024;-81
2022/01/13 01:32:33;;;;;;;29.42;14.65;;;;;;;-9.99;100.00;94964.28;2085532;28;20488;-81
2022/01/13 01:33:38;;;;;;;28.00;14.15;;;;;;;-9.97;100.00;94967.38;2081079;28;20460;-82
2022/01/13 01:35:46;;;;;;;30.08;15.38;;;;;;;-10.12;100.00;94968.00;2090432;28;20459;-83
2022/01/13 01:36:48;;;;;;;28.55;15.02;;;;;;;-10.17;100.00;94960.19;2102696;28;20527;-81
2022/01/13 01:37:49;;;;;;;28.77;14.82;;;;;;;-10.23;100.00;94964.50;2094764;28;20476;-82
2022/01/13 01:38:53;;;;;;;29.13;15.63;;;;;;;-10.10;100.00;94960.00;2086917;28;20529;-82
2022/01/13 01:39:56;;;;;;;26.20;14.27;;;;;;;-10.10;100.00;94965.16;2085159;28;20583;-81
2022/01/13 01:40:56;;;;;;;26.58;14.15;;;;;;;-10.17;100.00;94962.78;2094559;28;20567;-81
2022/01/13 01:41:57;;;;;;;29.42;14.93;;;;;;;-10.02;100.00;94959.56;2093723;28;20890;-81
2022/01/13 01:42:58;;;;;;;27.70;15.07;;;;;;;-10.06;100.00;94959.28;2088890;28;20115;-81
2022/01/13 01:44:15;;;;;;;29.17;15.10;;;;;;;-10.15;100.00;94965.88;2079787;28;20136;-81
2022/01/13 01:45:18;;;;;;;28.23;14.02;;;;;;;-10.13;100.00;94961.28;2084380;28;20049;-81
2022/01/13 01:46:19;;;;;;;31.58;15.98;;;;;;;-10.02;100.00;94962.94;2081211;28;20452;-81
2022/01/13 01:48:35;;;;;;;31.00;14.27;;;;;;;-10.09;100.00;94964.16;2087137;28;20810;-81
2022/01/13 01:49:25;;;;;;;30.45;13.93;;;;;;;-10.11;100.00;94963.59;2096225;28;20036;-81
2022/01/13 01:50:32;;;;;;;31.45;13.63;;;;;;;-10.00;100.00;94963.50;2095256;28;20485;-81
2022/01/13 01:51:33;;;;;;;31.52;14.30;;;;;;;-10.01;100.00;94958.53;2087060;28;21035;-81
2022/01/13 01:52:34;;;;;;;24.60;13.73;;;;;;;-10.15;100.00;94963.31;2085793;28;20471;-81
2022/01/13 01:58:32;;;;;;;27.50;12.15;;;;;;;-10.15;100.00;94969.25;2084592;28;20932;-82
2022/01/13 02:00:27;;;;;;;26.05;11.95;;;;;;;-10.06;100.00;94974.00;2079330;28;20463;-82
2022/01/13 02:01:28;;;;;;;27.77;12.25;;;;;;;-10.14;100.00;94977.78;2096376;28;20873;-81
2022/01/13 02:02:30;;;;;;;28.20;13.73;;;;;;;-10.04;100.00;94974.56;2093130;28;20447;-81
2022/01/13 02:03:31;;;;;;;29.55;14.50;;;;;;;-10.07;100.00;94972.44;2088117;28;20544;-81
2022/01/13 02:04:32;;;;;;;30.25;14.20;;;;;;;-10.01;100.00;94967.09;2086447;28;20494;-81
2022/01/13 02:05:34;;;;;;;28.67;14.27;;;;;;;-10.09;100.00;94970.13;2088749;28;20031;-81
2022/01/13 02:06:37;;;;;;;29.88;14.32;;;;;;;-10.13;100.00;94968.25;2086628;28;20459;-81
2022/01/13 02:07:38;;;;;;;31.25;14.82;;;;;;;-10.18;100.00;94962.00;2087041;28;20495;-82
2022/01/13 02:08:39;;;;;;;27.85;14.88;;;;;;;-10.16;100.00;94959.94;2094291;28;20486;-81
2022/01/13 02:09:48;;;;;;;29.65;14.60;;;;;;;-10.06;100.00;94964.44;2096697;28;20442;-81
2022/01/13 02:10:49;;;;;;;28.65;14.70;;;;;;;-10.04;100.00;94962.41;2092797;28;20024;-82
2022/01/13 02:11:56;;;;;;;30.70;15.30;;;;;;;-10.09;100.00;94964.94;2085880;28;20451;-81
2022/01/13 02:13:05;;;;;;;29.55;14.60;;;;;;;-10.20;100.00;94964.03;2085236;28;20460;-81
2022/01/13 02:14:21;;;;;;;31.02;14.98;;;;;;;-10.24;100.00;94962.94;2083983;28;20464;-81
2022/01/13 02:15:48;;;;;;;33.95;13.73;;;;;;;-10.31;100.00;94970.13;2096503;28;20477;-82
2022/01/13 02:16:51;;;;;;;25.02;12.18;;;;;;;-10.26;100.00;94967.59;2101013;28;20458;-81
2022/01/13 02:17:53;;;;;;;29.33;14.38;;;;;;;-10.12;100.00;94965.41;2093076;28;20987;-82
2022/01/13 02:18:55;;;;;;;30.20;14.55;;;;;;;-10.13;100.00;94965.66;2084245;28;20467;-81
2022/01/13 02:19:57;;;;;;;31.33;14.23;;;;;;;-10.07;100.00;94970.63;2094481;28;20489;-81
2022/01/13 02:21:00;;;;;;;30.55;14.73;;;;;;;-10.06;100.00;94966.25;2093490;28;20466;-82
2022/01/13 02:22:02;;;;;;;34.70;14.65;;;;;;;-10.04;100.00;94962.41;2085274;28;20860;-81
2022/01/13 02:23:09;;;;;;;29.02;16.02;;;;;;;-10.06;100.00;94966.25;2086582;28;20999;-82
2022/01/13 02:24:10;;;;;;;30.73;14.63;;;;;;;-10.11;100.00;94972.13;2080675;28;20495;-82
2022/01/13 02:25:16;;;;;;;30.08;15.50;;;;;;;-10.02;100.00;94973.28;2078275;28;20526;-82
2022/01/13 02:26:16;;;;;;;31.67;15.13;;;;;;;-9.98;100.00;94971.00;2089348;28;20812;-81
2022/01/13 02:27:18;;;;;;;30.65;15.60;;;;;;;-10.08;100.00;94970.88;2092293;28;20562;-82
2022/01/13 02:28:19;;;;;;;29.08;15.07;;;;;;;-10.07;100.00;94973.22;2096734;28;20023;-82
2022/01/13 02:29:20;;;;;;;30.38;15.10;;;;;;;-9.97;100.00;94968.16;2084401;28;20491;-82
2022/01/13 02:30:21;;;;;;;28.63;14.77;;;;;;;-10.04;100.00;94972.75;2092305;28;20028;-82
2022/01/13 02:31:22;;;;;;;31.08;15.45;;;;;;;-10.03;100.00;94971.72;2084585;28;20558;-82
2022/01/13 02:32:24;;;;;;;31.73;14.80;;;;;;;-10.04;100.00;94977.16;2086231;28;20033;-82
2022/01/13 02:33:30;;;;;;;27.75;14.85;;;;;;;-10.13;100.00;94983.75;2095310;28;20529;-82
2022/01/13 02:34:31;;;;;;;33.67;15.95;;;;;;;-10.20;100.00;94983.94;2089413;28;20556;-82
2022/01/13 02:35:37;;;;;;;32.55;16.27;;;;;;;-10.07;100.00;94975.81;2080282;28;20535;-82
2022/01/13 02:36:46;;;;;;;32.78;15.43;;;;;;;-10.19;100.00;94986.25;2079533;28;20526;-82
2022/01/13 02:37:51;;;;;;;31.27;15.32;;;;;;;-10.20;100.00;94981.34;2080920;28;20527;-82
2022/01/13 02:39:00;;;;;;;30.55;16.20;;;;;;;-10.17;100.00;94983.44;2083265;28;20456;-82
2022/01/13 02:40:07;;;;;;;28.23;14.02;;;;;;;-10.21;100.00;94995.28;2090740;28;20451;-82
2022/01/13 02:41:10;;;;;;;34.55;14.35;;;;;;;-10.08;100.00;94986.41;2087480;28;20546;-82
2022/01/13 02:42:21;;;;;;;29.95;15.98;;;;;;;-9.98;100.00;94984.72;2079043;28;20547;-82
2022/01/13 02:43:26;;;;;;;;;;;;;;;-9.92;100.00;94980.38;2088172;28;20903;-82
2022/01/13 02:44:37;;;;;;;30.73;12.88;;;;;;;-9.98;100.00;94989.09;2080242;28;19971;-82
2022/01/13 02:46:02;;;;;;;29.88;13.35;;;;;;;-10.03;100.00;94991.63;2086100;28;20456;-82
2022/01/13 02:47:33;;;;;;;27.70;13.80;;;;;;;-10.05;100.00;94991.88;2093417;28;20807;-81
2022/01/13 02:48:35;;;;;;;32.10;14.27;;;;;;;-10.10;100.00;94981.44;2096834;28;20450;-82
2022/01/13 02:49:36;;;;;;;29.92;12.93;;;;;;;-10.12;100.00;94990.50;2087092;28;20448;-82
2022/01/13 02:50:40;;;;;;;34.13;15.23;;;;;;;-9.99;100.00;94987.53;2096591;28;20489;-82
2022/01/13 02:51:44;;;;;;;29.65;15.05;;;;;;;-10.08;100.00;94994.16;2099019;28;20893;-82
2022/01/13 02:52:51;;;;;;;30.42;15.52;;;;;;;-10.18;100.00;94992.25;2089714;28;21006;-82
2022/01/13 02:53:57;;;;;;;31.17;15.90;;;;;;;-10.26;100.00;94997.84;2088172;28;21073;-81
2022/01/13 02:55:02;;;;;;;28.77;14.57;;;;;;;-10.21;100.00;94984.94;2083865;28;20481;-82
2022/01/13 02:56:06;;;;;;;35.25;16.65;;;;;;;-10.27;100.00;94984.16;2079993;28;20571;-81
2022/01/13 02:57:09;;;;;;;31.90;16.05;;;;;;;-10.24;100.00;94986.19;2077702;28;20464;-82
2022/01/13 02:58:18;;;;;;;37.30;15.68;;;;;;;-10.21;100.00;94984.94;2085011;28;20455;-83
2022/01/13 02:59:19;;;;;;;31.15;15.98;;;;;;;-10.02;100.00;94983.63;2086000;28;20937;-82
2022/01/13 03:00:20;;;;;;;33.03;16.10;;;;;;;-10.05;100.00;94988.50;2087324;28;20020;-82
2022/01/13 03:01:29;;;;;;;38.13;16.27;;;;;;;-10.09;100.00;94987.44;2086079;28;20466;-82
2022/01/13 03:02:31;;;;;;;31.48;14.57;;;;;;;-10.14;100.00;94975.19;2079272;28;20392;-83
2022/01/13 03:03:35;;;;;;;30.73;15.18;;;;;;;-10.12;100.00;94977.56;2083796;28;20482;-83
2022/01/13 03:04:36;;;;;;;31.33;15.02;;;;;;;-10.21;100.00;94974.63;2094815;28;20450;-82
2022/01/13 03:05:40;;;;;;;35.72;16.38;;;;;;;-10.19;100.00;94973.34;2093379;28;20534;-82
2022/01/13 03:06:41;;;;;;;34.22;16.17;;;;;;;-10.20;100.00;94976.94;2086292;28;20033;-83
2022/01/13 03:07:43;;;;;;;33.45;16.00;;;;;;;-10.15;100.00;94969.25;2097035;28;20446;-83
2022/01/13 03:08:49;;;;;;;31.13;16.10;;;;;;;-10.15;100.00;94976.22;2085401;28;20578;-82
2022/01/13 03:09:52;;;;;;;30.48;15.10;;;;;;;-10.21;100.00;94969.44;2087042;28;21253;-83
2022/01/13 03:10:56;;;;;;;34.80;15.85;;;;;;;-10.24;100.00;94975.88;2083880;28;21112;-82
2022/01/13 03:12:02;;;;;;;30.98;15.80;;;;;;;-10.15;100.00;94966.66;2083280;28;20586;-81
2022/01/13 03:13:05;;;;;;;36.33;16.05;;;;;;;-10.19;100.00;94973.34;2081436;28;20557;-81
2022/01/13 03:14:10;;;;;;;33.55;16.08;;;;;;;-10.16;100.00;94974.66;2082287;28;21000;-82
2022/01/13 03:15:11;;;;;;;33.10;15.10;;;;;;;-10.13;100.00;94970.84;2087767;28;20459;-82
2022/01/13 03:16:14;;;;;;;32.92;15.95;;;;;;;-10.19;100.00;94972.56;2088679;28;20500;-82
2022/01/13 03:17:16;;;;;;;29.90;15.52;;;;;;;-10.27;100.00;94973.81;2093318;28;20443;-83
2022/01/13 03:18:20;;;;;;;32.22;15.82;;;;;;;-10.01;100.00;94976.66;2094045;28;20501;-82
2022/01/13 03:19:22;;;;;;;29.40;14.93;;;;;;;-10.07;100.00;94970.63;2090215;28;20443;-82
2022/01/13 03:20:23;;;;;;;29.02;14.85;;;;;;;-10.20;100.00;94965.84;2077862;28;20467;-81
2022/01/13 03:21:27;;;;;;;32.25;16.02;;;;;;;-10.18;100.00;94961.22;2089943;28;20972;-82
2022/01/13 03:22:31;;;;;;;34.70;16.02;;;;;;;-10.11;100.00;94958.44;2098221;28;21375;-83
2022/01/13 03:23:33;;;;;;;30.60;15.43;;;;;;;-10.18;100.00;94967.16;2088148;28;20450;-83
2022/01/13 03:24:34;;;;;;;27.30;14.40;;;;;;;-10.12;100.00;94954.28;2082993;28;20774;-82
2022/01/13 03:25:44;;;;;;;32.47;15.20;;;;;;;-10.13;100.00;94963.09;2085871;28;20483;-83
2022/01/13 03:26:49;;;;;;;31.25;15.20;;;;;;;-10.25;100.00;94958.03;2103642;28;20446;-82
2022/01/13 03:27:56;;;;;;;28.92;14.63;;;;;;;-10.29;100.00;94959.53;2088394;28;20028;-82
2022/01/13 03:30:13;;;;;;;36.40;15.63;;;;;;;-10.25;100.00;94958.03;2090982;28;20447;-83
2022/01/13 03:31:14;;;;;;;33.25;15.70;;;;;;;-10.23;100.00;94966.31;2093576;28;20532;-83
2022/01/13 03:32:21;;;;;;;30.67;15.88;;;;;;;-10.17;100.00;94960.19;2089759;28;20459;-83
2022/01/13 03:33:22;;;;;;;29.30;14.32;;;;;;;-10.23;100.00;94967.06;2087151;28;20466;-83
2022/01/13 03:34:23;;;;;;;35.08;16.33;;;;;;;-10.25;100.00;94961.41;2106252;28;20480;-83
2022/01/13 03:35:24;;;;;;;31.90;15.75;;;;;;;-10.24;100.00;94952.59;2091902;28;20017;-82
2022/01/13 03:36:25;;;;;;;33.75;15.95;;;;;;;-10.18;100.00;94956.81;2082012;28;20021;-82
2022/01/13 03:37:29;;;;;;;34.60;16.35;;;;;;;-10.16;100.00;94954.00;2083778;28;20448;-83
2022/01/13 03:38:32;;;;;;;32.00;15.90;;;;;;;-10.12;100.00;94954.28;2085052;28;20444;-82
2022/01/13 03:39:36;;;;;;;30.77;14.70;;;;;;;-10.09;100.00;94961.56;2090289;28;20447;-84
2022/01/13 03:40:42;;;;;;;29.00;14.73;;;;;;;-10.09;100.00;94951.25;2096578;28;20521;-83
2022/01/13 03:41:47;;;;;;;34.17;15.80;;;;;;;-9.98;100.00;94956.25;2093097;28;20479;-83
2022/01/13 03:42:52;;;;;;;32.40;15.70;;;;;;;-9.87;100.00;94951.22;2090323;28;20979;-82
2022/01/13 03:43:55;;;;;;;26.90;14.43;;;;;;;-9.99;100.00;94959.09;2082381;28;20497;-82
2022/01/13 03:45:00;;;;;;;29.85;15.27;;;;;;;-10.04;100.00;94957.25;2081936;28;20863;-81
2022/01/13 03:46:05;;;;;;;30.50;16.10;;;;;;;-10.10;100.00;94952.25;2090890;28;21030;-81
2022/01/13 03:47:09;;;;;;;34.17;15.35;;;;;;;-10.11;100.00;94953.25;2088172;28;20450;-82
2022/01/13 03:48:16;;;;;;;33.83;16.25;;;;;;;-9.92;100.00;94942.38;2095847;28;21000;-82
2022/01/13 03:49:17;;;;;;;35.50;16.98;;;;;;;-9.96;100.00;94943.88;2082281;28;21083;-82
2022/01/13 03:50:18;;;;;;;33.88;16.15;;;;;;;-9.93;100.00;94945.19;2080919;28;20444;-82
2022/01/13 03:51:19;;;;;;;32.38;15.90;;;;;;;-9.89;100.00;94941.88;2079229;28;20026;-82
2022/01/13 03:52:23;;;;;;;32.90;16.77;;;;;;;-9.85;100.00;94942.19;2087459;28;20044;-82
2022/01/13 03:53:27;;;;;;;33.00;17.33;;;;;;;-9.75;100.00;94946.66;2084804;28;20524;-81
2022/01/13 03:54:31;;;;;;;34.05;17.08;;;;;;;-9.68;100.00;94942.09;2090144;28;20456;-81
2022/01/13 03:55:35;;;;;;;35.42;16.05;;;;;;;-9.74;100.00;94951.63;2088561;28;20448;-82
2022/01/13 03:56:42;;;;;;;34.85;17.00;;;;;;;-9.79;100.00;94950.78;2088689;28;20432;-82
2022/01/13 03:58:13;;;;;;;33.20;16.45;;;;;;;-9.83;100.00;94947.91;2090249;28;20446;-82
2022/01/13 03:59:53;;;;;;;35.42;15.82;;;;;;;-9.81;100.00;94947.66;2095655;28;20442;-82
2022/01/13 04:01:23;;;;;;;31.98;12.82;;;;;;;-9.86;100.00;94948.38;2096985;28;20426;-82
2022/01/13 04:02:26;;;;;;;31.30;14.40;;;;;;;-9.91;100.00;94940.56;2061072;28;20145;-81
2022/01/13 04:03:27;;;;;;;43.45;15.10;;;;;;;-9.96;100.00;94936.13;2045148;28;20472;-83
2022/01/13 04:04:35;;;;;;;35.17;16.58;;;;;;;-9.93;100.00;94937.44;2087908;28;20554;-82
2022/01/13 04:06:03;;;;;;;34.42;16.67;;;;;;;-9.94;100.00;94928.13;2087354;28;20452;-82
2022/01/13 04:07:14;;;;;;;33.70;14.45;;;;;;;-9.82;100.00;94933.94;2080378;28;20478;-81
2022/01/13 04:08:20;;;;;;;32.92;17.00;;;;;;;-9.83;100.00;94932.38;2084625;28;20456;-82
2022/01/13 04:09:52;;;;;;;33.03;16.50;;;;;;;-9.92;100.00;94924.28;2091099;28;20447;-81
2022/01/13 04:10:53;;;;;;;32.38;16.05;;;;;;;-10.02;100.00;94933.72;2066826;28;20446;-82
2022/01/13 04:11:56;;;;;;;35.33;15.10;;;;;;;-9.96;100.00;94928.38;2081184;28;20440;-82
2022/01/13 04:12:57;;;;;;;29.83;15.95;;;;;;;-10.09;100.00;94928.75;2081724;28;20517;-82
2022/01/13 04:14:05;;;;;;;32.83;16.40;;;;;;;-10.08;100.00;94922.53;2092357;28;20456;-82
2022/01/13 04:15:10;;;;;;;33.05;16.45;;;;;;;-9.89;100.00;94923.00;2091338;28;20715;-82
2022/01/13 04:16:13;;;;;;;29.70;15.52;;;;;;;-9.79;100.00;94924.91;2100945;28;20461;-82
2022/01/13 04:17:21;;;;;;;33.88;16.60;;;;;;;-9.82;100.00;94920.22;2084658;28;20456;-82
2022/01/13 04:18:22;;;;;;;36.40;17.15;;;;;;;-9.82;100.00;94926.19;2091303;28;20444;-82
2022/01/13 04:19:23;;;;;;;35.15;18.08;;;;;;;-9.80;100.00;94929.28;2091568;28;20526;-82
2022/01/13 04:20:24;;;;;;;33.35;15.77;;;;;;;-9.85;100.00;94934.41;2089341;28;20099;-82
2022/01/13 04:21:25;;;;;;;36.05;17.75;;;;;;;-9.80;100.00;94923.34;2089321;28;20009;-81
2022/01/13 04:22:26;;;;;;;33.95;16.55;;;;;;;-9.81;100.00;94926.97;2089414;28;20440;-82
2022/01/13 04:23:27;;;;;;;31.65;16.25;;;;;;;-9.90;100.00;94921.44;2081854;28;20440;-82
2022/01/13 04:24:28;;;;;;;29.90;16.50;;;;;;;-9.83;100.00;94926.41;2087346;28;20557;-82
2022/01/13 04:25:31;;;;;;;37.00;17.40;;;;;;;-9.78;100.00;94919.50;2087401;28;20841;-82
2022/01/13 04:26:34;;;;;;;32.03;15.75;;;;;;;-9.79;100.00;94919.72;2083354;28;20451;-81
2022/01/13 04:27:41;;;;;;;36.30;16.98;;;;;;;-9.82;100.00;94928.78;2087382;28;20497;-82
2022/01/13 04:28:42;;;;;;;34.83;16.50;;;;;;;-9.82;100.00;94930.56;2090252;28;20447;-83
2022/01/13 04:29:45;;;;;;;35.13;16.92;;;;;;;-9.92;100.00;94928.66;2082097;28;20471;-82
2022/01/13 04:30:50;;;;;;;30.88;16.15;;;;;;;-9.85;100.00;94934.41;2081905;28;20459;-81
2022/01/13 04:31:51;;;;;;;34.90;18.50;;;;;;;-9.90;100.00;94926.63;2081386;28;20531;-82
2022/01/13 04:32:58;;;;;;;32.83;16.40;;;;;;;-9.90;100.00;94918.84;2093592;28;20533;-82
2022/01/13 04:34:00;;;;;;;36.55;16.80;;;;;;;-10.02;100.00;94918.97;2091029;28;20486;-83
2022/01/13 04:35:03;;;;;;;37.15;16.92;;;;;;;-9.89;100.00;94920.41;2088303;28;20791;-82
2022/01/13 04:36:06;;;;;;;37.22;17.98;;;;;;;-9.81;100.00;94919.19;2089164;28;20443;-82
2022/01/13 04:37:07;;;;;;;33.83;17.45;;;;;;;-9.97;100.00;94919.03;2087594;28;20443;-83
2022/01/13 04:38:11;;;;;;;36.78;15.68;;;;;;;-10.02;100.00;94915.63;2077347;28;20913;-83
2022/01/13 04:39:14;;;;;;;33.88;16.45;;;;;;;-10.02;100.00;94913.81;2093112;28;20016;-82
2022/01/13 04:40:15;;;;;;;32.15;16.55;;;;;;;-9.93;100.00;94912.34;2086637;28;20492;-82
2022/01/13 04:41:28;;;;;;;35.67;16.40;;;;;;;-9.96;100.00;94914.66;2081134;28;21027;-83
2022/01/13 04:42:35;;;;;;;37.08;16.35;;;;;;;-9.91;100.00;94912.91;2082240;28;20444;-82
2022/01/13 04:43:38;;;;;;;34.40;16.83;;;;;;;-9.87;100.00;94912.44;2086366;28;20546;-83
2022/01/13 04:44:39;;;;;;;32.35;16.27;;;;;;;-9.89;100.00;94920.41;2089337;28;20801;-83
2022/01/13 04:45:40;;;;;;;32.72;16.17;;;;;;;-9.88;100.00;94911.63;2087765;28;20436;-83
2022/01/13 04:46:41;;;;;;;33.00;16.10;;;;;;;-9.75;100.00;94913.81;2096116;28;20035;-82
2022/01/13 04:47:42;;;;;;;36.75;17.70;;;;;;;-9.72;100.00;94905.56;2089247;28;20615;-82
2022/01/13 04:48:43;;;;;;;34.50;16.92;;;;;;;-9.79;100.00;94915.34;2079278;28;20448;-82
2022/01/13 04:49:44;;;;;;;34.67;16.50;;;;;;;-9.86;100.00;94917.34;2093124;28;20024;-82
2022/01/13 04:50:46;;;;;;;33.50;17.23;;;;;;;-9.90;100.00;94909.28;2088113;28;20477;-82
2022/01/13 04:51:55;;;;;;;37.30;17.67;;;;;;;-9.92;100.00;94923.47;2094163;28;20446;-83
2022/01/13 04:52:56;;;;;;;39.97;17.13;;;;;;;-9.93;100.00;94912.34;2094846;28;20480;-83
2022/01/13 04:53:57;;;;;;;33.90;17.05;;;;;;;-9.86;100.00;94919.94;2084522;28;20052;-82
2022/01/13 04:55:07;;;;;;;37.97;17.70;;;;;;;-9.82;100.00;94917.66;2091870;28;20050;-83
2022/01/13 04:56:13;;;;;;;31.27;15.27;;;;;;;-9.90;100.00;94918.84;2089853;28;20525;-83
2022/01/13 04:57:17;;;;;;;29.98;15.13;;;;;;;-9.87;100.00;94920.19;2087780;28;20025;-82
2022/01/13 04:58:18;;;;;;;29.90;15.20;;;;;;;-9.84;100.00;94927.44;2090162;28;20522;-82
2022/01/13 04:59:19;;;;;;;38.40;17.20;;;;;;;-9.87;100.00;94915.00;2095500;28;20509;-82
2022/01/13 05:00:22;;;;;;;33.65;15.82;;;;;;;-9.71;100.00;94916.72;2085342;28;21053;-82
2022/01/13 05:01:23;;;;;;;32.50;17.00;;;;;;;-9.85;100.00;94916.31;2087750;28;20052;-82
2022/01/13 05:02:24;;;;;;;32.65;16.65;;;;;;;-9.89;100.00;94910.06;2097367;28;20469;-82
2022/01/13 05:03:25;;;;;;;37.22;16.35;;;;;;;-9.77;100.00;94910.72;2082772;28;20499;-82
2022/01/13 05:04:26;;;;;;;32.50;16.65;;;;;;;-9.83;100.00;94909.09;2080918;28;20056;-82
2022/01/13 05:05:27;;;;;;;31.35;14.98;;;;;;;-9.89;100.00;94921.19;2080910;28;20022;-82
2022/01/13 05:06:29;;;;;;;31.33;16.48;;;;;;;-10.00;100.00;94916.16;2084039;28;20868;-82
2022/01/13 05:07:31;;;;;;;32.33;16.45;;;;;;;-10.05;100.00;94926.44;2078849;28;20059;-81
2022/01/13 05:08:33;;;;;;;31.90;16.00;;;;;;;-10.05;100.00;94923.84;2095425;28;20840;-81
2022/01/13 05:09:34;;;;;;;31.80;16.73;;;;;;;-9.91;100.00;94917.28;2096947;28;21083;-81
2022/01/13 05:10:35;;;;;;;33.33;15.73;;;;;;;-9.89;100.00;94917.81;2085034;28;21002;-81
2022/01/13 05:11:36;;;;;;;34.00;15.88;;;;;;;-9.90;100.00;94921.44;2094918;28;20589;-82